createdAt,value
2022-07-30T02:44:39.948Z,11.73
2022-07-30T02:47:10.590Z,15.23
2022-07-30T02:50:07.170Z,14.33
2022-07-30T05:06:04.844Z,13.45
2022-07-30T10:19:15.902Z,3.92
2022-07-30T10:22:12.868Z,4.63
2022-07-30T10:25:06.163Z,5.18
2022-07-30T10:28:07.179Z,4.47
2022-07-30T10:30:37.720Z,5.20
2022-07-30T10:33:09.226Z,5.00
2022-07-30T10:35:59.082Z,5.20
2022-07-30T10:38:32.421Z,6.00
2022-07-30T10:41:04.987Z,4.70
2022-07-30T10:44:00.916Z,4.10
2022-07-30T11:00:12.290Z,4.82
2022-07-30T11:03:18.122Z,4.60
2022-07-30T11:05:48.913Z,4.30
2022-07-30T11:08:50.633Z,5.47
2022-07-30T11:12:01.776Z,3.87
2022-07-30T11:15:06.838Z,3.85
2022-07-30T11:18:13.057Z,4.82
2022-07-30T11:20:43.307Z,4.28
2022-07-30T11:26:50.414Z,3.95
2022-07-30T11:29:50.978Z,5.15
2022-07-30T11:32:45.606Z,4.75
2022-07-30T11:35:19.204Z,4.73
2022-07-30T11:37:57.942Z,4.65
2022-07-30T11:40:35.389Z,5.13
2022-07-30T11:43:35.550Z,4.20
2022-07-30T11:46:10.474Z,3.88
2022-07-30T11:48:57.316Z,5.75
2022-07-30T11:51:25.858Z,4.60
2022-07-30T11:54:03.694Z,4.60
2022-07-30T11:56:31.791Z,3.92
2022-07-30T11:59:05.574Z,4.88
2022-07-30T12:01:34.490Z,3.95
2022-07-30T12:04:05.012Z,3.80
2022-07-30T12:06:33.716Z,4.43
2022-07-30T12:09:01.881Z,5.60
2022-07-30T12:11:33.401Z,3.80
2022-07-30T12:14:03.320Z,4.32
2022-07-30T12:16:34.554Z,5.35
2022-07-30T12:19:03.844Z,3.72
2022-07-30T12:21:35.144Z,4.75
2022-07-30T12:24:07.630Z,5.47
2022-07-30T12:26:38.913Z,4.57
2022-07-30T12:29:10.214Z,5.25
2022-07-30T12:31:40.497Z,4.30
2022-07-30T12:34:20.962Z,4.75
2022-07-30T12:36:49.041Z,4.85
2022-07-30T12:39:22.321Z,5.67
2022-07-30T12:41:53.215Z,5.20
2022-07-30T12:44:40.926Z,6.60
2022-07-30T12:47:21.659Z,6.25
2022-07-30T12:49:50.531Z,4.60
2022-07-30T12:52:27.868Z,6.20
2022-07-30T12:55:01.346Z,6.80
2022-07-30T12:57:29.552Z,5.28
2022-07-30T13:00:07.200Z,5.80
2022-07-30T13:02:39.496Z,6.07
2022-07-30T13:05:11.543Z,6.50
2022-07-30T13:07:54.400Z,5.38
2022-07-30T13:10:30.813Z,6.60
2022-07-30T13:13:23.889Z,6.28
2022-07-30T13:16:23.435Z,5.75
2022-07-30T13:18:53.828Z,4.93
2022-07-30T13:21:29.652Z,4.88
2022-07-30T13:23:59.410Z,4.63
2022-07-30T13:26:29.929Z,5.13
2022-07-30T13:29:01.659Z,5.38
2022-07-30T13:31:43.067Z,5.63
2022-07-30T13:34:15.360Z,4.40
2022-07-30T13:36:45.578Z,4.75
2022-07-30T13:39:13.793Z,5.45
2022-07-30T13:41:42.700Z,3.88
2022-07-30T13:44:11.128Z,4.75
2022-07-30T13:46:41.287Z,5.10
2022-07-30T13:49:10.762Z,5.80
2022-07-30T13:51:40.835Z,5.28
2022-07-30T13:54:08.941Z,4.65
2022-07-30T13:56:42.959Z,4.25
2022-07-30T13:59:12.504Z,4.05
2022-07-30T14:01:43.818Z,6.32
2022-07-30T14:04:14.915Z,3.80
2022-07-30T14:06:47.038Z,5.15
2022-07-30T14:09:18.220Z,4.17
2022-07-30T14:11:48.503Z,5.60
2022-07-30T14:14:16.998Z,3.70
2022-07-30T14:16:46.701Z,3.78
2022-07-30T14:19:23.862Z,6.82
2022-07-30T14:22:19.390Z,3.67
2022-07-30T14:24:47.592Z,6.93
2022-07-30T14:27:19.950Z,5.50
2022-07-30T14:29:48.254Z,3.97
2022-07-30T14:32:44.168Z,4.30
2022-07-30T14:35:15.108Z,4.93
2022-07-30T14:37:44.819Z,4.25
2022-07-30T14:40:16.838Z,4.80
2022-07-30T14:42:48.058Z,5.45
2022-07-30T14:45:18.838Z,5.00
2022-07-30T14:48:12.647Z,3.90
2022-07-30T14:50:57.235Z,6.10
2022-07-30T14:53:30.595Z,4.07
2022-07-30T14:56:01.101Z,7.07
2022-07-30T14:58:57.355Z,3.15
2022-07-30T15:01:25.811Z,4.30
2022-07-30T15:03:56.997Z,4.65
2022-07-30T15:06:28.624Z,3.42
2022-07-30T15:09:00.511Z,5.07
2022-07-30T15:11:31.089Z,4.50
2022-07-30T15:14:04.457Z,6.63
2022-07-30T15:16:36.243Z,3.80
2022-07-30T15:19:04.586Z,4.70
2022-07-30T15:21:33.626Z,4.43
2022-07-30T15:24:06.505Z,3.77
2022-07-30T15:26:34.886Z,5.55
2022-07-30T15:29:05.196Z,5.30
2022-07-30T15:31:34.051Z,4.20
2022-07-30T15:36:33.229Z,4.38
2022-07-30T15:39:01.638Z,6.07
2022-07-30T15:41:31.711Z,4.68
2022-07-30T15:44:02.169Z,6.40
2022-07-30T15:46:30.243Z,5.27
2022-07-30T15:53:58.013Z,4.90
2022-07-30T15:56:26.502Z,4.90
2022-07-30T15:58:57.908Z,3.83
2022-07-30T16:01:26.139Z,4.85
2022-07-30T16:13:49.539Z,5.43
2022-07-30T16:16:19.451Z,4.53
2022-07-30T16:18:50.128Z,4.77
2022-07-30T16:21:43.516Z,5.93
2022-07-30T16:24:12.177Z,4.80
2022-07-30T16:26:40.299Z,4.55
2022-07-30T16:29:13.525Z,5.03
2022-07-30T16:31:43.810Z,4.70
2022-07-30T16:34:12.135Z,5.45
2022-07-30T16:36:40.328Z,5.20
2022-07-30T18:43:13.098Z,4.10
2022-07-30T20:34:16.283Z,6.47
